Time;durP1;ratioP1;P1;durP2;ratioP2;P2;SDS_P1;SDS_P2;PMS_P1;PMS_P2;Temp;Humidity;BMP_temperature;BMP_pressure;BME280_temperature;BME280_humidity;BME280_pressure;Samples;Min_cycle;Max_cycle;Signal;HPM_P1;HPM_P2
2022/11/17 00:02:17;;;;;;;20.30;6.90;;;8.60;99.90;;;;;;5033498;28;20983;-68
2022/11/17 00:04:44;;;;;;;11.57;7.00;;;8.70;99.90;;;;;;5033589;28;20896;-68
2022/11/17 00:07:11;;;;;;;8.97;6.33;;;8.60;99.90;;;;;;5032199;28;20954;-68
2022/11/17 00:09:38;;;;;;;14.40;7.50;;;8.70;99.90;;;;;;5031708;28;20461;-68
2022/11/17 00:14:49;;;;;;;14.53;6.90;;;8.70;99.90;;;;;;5031493;28;20560;-68
2022/11/17 00:17:17;;;;;;;10.30;7.10;;;8.70;99.90;;;;;;5035979;28;20483;-68
2022/11/17 00:22:30;;;;;;;13.83;6.30;;;8.70;99.90;;;;;;5030670;28;22100;-68
2022/11/17 00:24:57;;;;;;;9.47;6.30;;;8.70;99.90;;;;;;5031836;28;20544;-68
2022/11/17 00:27:24;;;;;;;13.93;6.63;;;8.70;99.90;;;;;;5032473;28;20450;-68
2022/11/17 00:29:51;;;;;;;11.20;5.30;;;8.70;99.90;;;;;;5050248;28;20971;-68
2022/11/17 00:35:06;;;;;;;12.53;5.97;;;8.80;99.90;;;;;;5031310;28;20518;-68
2022/11/17 00:37:36;;;;;;;11.00;5.30;;;8.80;99.90;;;;;;5031886;28;20450;-68
2022/11/17 00:40:03;;;;;;;9.97;5.50;;;8.80;99.90;;;;;;5032598;28;20512;-68
2022/11/17 00:42:30;;;;;;;12.43;5.67;;;8.80;99.90;;;;;;5045468;28;20997;-68
2022/11/17 00:44:56;;;;;;;13.83;5.97;;;8.70;99.90;;;;;;5032941;28;20790;-68
2022/11/17 00:47:24;;;;;;;12.17;5.80;;;8.70;99.90;;;;;;5046282;28;20532;-68
2022/11/17 00:49:51;;;;;;;9.70;5.23;;;8.70;99.90;;;;;;5051151;28;20528;-68
2022/11/17 00:52:17;;;;;;;13.47;5.70;;;8.70;99.90;;;;;;5045420;28;20463;-68
2022/11/17 00:54:44;;;;;;;7.27;5.77;;;8.70;99.90;;;;;;5030363;28;20480;-68
2022/11/17 00:57:11;;;;;;;15.23;7.10;;;8.70;99.90;;;;;;5032717;28;20657;-68
2022/11/17 00:59:37;;;;;;;11.13;4.80;;;8.70;99.90;;;;;;5031198;28;20454;-68
2022/11/17 01:02:04;;;;;;;6.93;4.37;;;8.70;99.90;;;;;;5030255;28;20481;-68
2022/11/17 01:04:32;;;;;;;19.47;5.20;;;8.70;99.90;;;;;;5030625;28;20516;-68
2022/11/17 01:06:59;;;;;;;12.33;5.13;;;8.70;99.90;;;;;;5030601;28;20481;-68
2022/11/17 01:09:25;;;;;;;10.40;4.47;;;8.60;99.90;;;;;;5030399;28;20454;-68
2022/11/17 01:11:53;;;;;;;7.30;4.60;;;8.60;99.90;;;;;;5030322;28;20442;-68
2022/11/17 01:14:24;;;;;;;12.63;4.43;;;8.60;99.90;;;;;;5030657;28;20555;-68
2022/11/17 01:16:51;;;;;;;16.60;5.40;;;8.60;99.90;;;;;;5030837;28;20472;-68
2022/11/17 01:19:18;;;;;;;14.00;4.63;;;8.60;99.90;;;;;;5030205;28;20829;-68
2022/11/17 01:21:46;;;;;;;16.73;4.70;;;8.60;99.90;;;;;;5029772;28;20458;-68
2022/11/17 01:24:15;;;;;;;8.77;5.00;;;8.60;99.90;;;;;;5031263;28;20473;-68
2022/11/17 01:26:42;;;;;;;9.70;4.70;;;8.50;99.90;;;;;;5039773;28;20924;-68
2022/11/17 01:29:11;;;;;;;12.50;4.90;;;8.50;99.90;;;;;;5051916;28;20449;-68
2022/11/17 01:31:40;;;;;;;13.37;5.17;;;8.50;99.90;;;;;;5048729;28;20511;-68
2022/11/17 01:34:07;;;;;;;12.60;5.00;;;8.50;99.90;;;;;;5030588;28;20466;-68
2022/11/17 01:37:17;;;;;;;13.33;5.53;;;8.50;99.90;;;;;;5037641;28;20530;-68
2022/11/17 01:39:25;;;;;;;10.90;5.77;;;8.50;99.90;;;;;;5050250;28;20445;-68
2022/11/17 01:41:52;;;;;;;11.50;4.97;;;8.50;99.90;;;;;;5026905;28;20454;-68
2022/11/17 01:44:51;;;;;;;15.30;5.93;;;8.40;99.90;;;;;;5032136;28;20506;-68
2022/11/17 01:47:21;;;;;;;10.73;5.60;;;8.40;99.90;;;;;;5024603;28;20461;-68
2022/11/17 01:49:49;;;;;;;9.70;4.90;;;8.40;99.90;;;;;;5030787;28;20518;-68
2022/11/17 01:52:17;;;;;;;17.77;6.07;;;8.30;99.90;;;;;;5030781;28;20465;-68
2022/11/17 01:54:46;;;;;;;5.03;4.13;;;8.30;99.90;;;;;;5029685;28;20543;-68
2022/11/17 01:57:18;;;;;;;9.83;5.47;;;8.20;99.90;;;;;;5042604;28;20453;-67
2022/11/17 01:59:48;;;;;;;10.37;4.77;;;8.20;99.90;;;;;;5049716;28;20519;-68
2022/11/17 02:02:15;;;;;;;9.13;4.73;;;8.20;99.90;;;;;;5042960;28;20752;-68
2022/11/17 02:04:48;;;;;;;15.00;4.70;;;8.20;99.90;;;;;;5029165;28;20532;-68
2022/11/17 02:07:21;;;;;;;8.97;5.37;;;8.30;99.90;;;;;;5023800;28;20580;-67
2022/11/17 02:09:51;;;;;;;5.13;4.33;;;8.30;99.90;;;;;;5030262;28;20458;-68
2022/11/17 02:12:19;;;;;;;10.33;4.87;;;8.30;99.90;;;;;;5031091;28;21032;-68
2022/11/17 02:14:48;;;;;;;9.77;4.67;;;8.30;99.90;;;;;;5031629;28;20449;-68
2022/11/17 02:17:15;;;;;;;6.20;4.03;;;8.30;99.90;;;;;;5042614;28;20457;-67
2022/11/17 02:19:45;;;;;;;10.50;5.10;;;8.30;99.90;;;;;;5030876;28;20449;-68
2022/11/17 02:22:34;;;;;;;9.67;4.57;;;8.40;99.90;;;;;;5029311;28;20468;-68
2022/11/17 02:25:21;;;;;;;5.90;4.17;;;8.40;99.90;;;;;;5029561;28;20450;-68
2022/11/17 02:28:03;;;;;;;10.87;4.30;;;8.40;99.90;;;;;;5031013;28;20875;-68
2022/11/17 02:30:37;;;;;;;9.83;4.40;;;8.40;99.90;;;;;;5035915;28;20460;-68
2022/11/17 02:33:08;;;;;;;5.43;4.07;;;8.40;99.90;;;;;;5038672;28;20476;-67
2022/11/17 02:35:43;;;;;;;6.57;4.13;;;8.40;99.90;;;;;;5031256;28;20511;-68
2022/11/17 02:38:23;;;;;;;8.63;4.43;;;8.40;99.90;;;;;;5031830;28;20497;-68
2022/11/17 02:40:53;;;;;;;5.57;4.27;;;8.40;99.90;;;;;;5031188;28;20449;-68
2022/11/17 02:46:15;;;;;;;12.60;4.53;;;8.40;99.90;;;;;;5032852;28;21002;-68
2022/11/17 02:48:47;;;;;;;15.10;5.30;;;8.30;99.90;;;;;;5048559;28;20854;-68
2022/11/17 02:51:17;;;;;;;8.90;4.70;;;8.30;99.90;;;;;;5050835;28;20889;-68
2022/11/17 02:53:44;;;;;;;12.03;5.73;;;8.30;99.90;;;;;;5035274;28;20535;-67
2022/11/17 02:56:11;;;;;;;14.80;5.60;;;8.30;99.90;;;;;;5034515;28;20808;-68
2022/11/17 02:58:39;;;;;;;9.93;5.00;;;8.30;99.90;;;;;;5033798;28;20454;-68
2022/11/17 03:01:19;;;;;;;6.67;4.60;;;8.30;99.90;;;;;;5034866;28;20508;-68
2022/11/17 03:04:03;;;;;;;8.30;4.87;;;8.30;99.90;;;;;;5034850;28;20976;-68
2022/11/17 03:06:41;;;;;;;6.23;5.00;;;8.30;99.90;;;;;;5034695;28;20489;-68
2022/11/17 03:09:15;;;;;;;7.57;4.10;;;8.30;99.90;;;;;;5017702;28;20454;-68
2022/11/17 03:11:47;;;;;;;9.57;5.23;;;8.30;99.90;;;;;;5034450;28;20449;-68
2022/11/17 03:14:20;;;;;;;11.50;4.33;;;8.30;99.90;;;;;;5043955;28;20465;-68
2022/11/17 03:16:55;;;;;;;10.67;5.10;;;8.30;99.90;;;;;;5052398;28;20460;-68
2022/11/17 03:19:28;;;;;;;6.97;3.90;;;8.30;99.90;;;;;;5033259;28;20457;-68
2022/11/17 03:21:59;;;;;;;12.03;4.77;;;8.30;99.90;;;;;;5034346;28;20457;-68
2022/11/17 03:24:30;;;;;;;16.77;4.80;;;8.30;99.90;;;;;;5034017;28;20504;-68
2022/11/17 03:27:01;;;;;;;7.03;4.40;;;8.30;99.90;;;;;;5041651;28;21112;-68
2022/11/17 03:29:33;;;;;;;10.27;4.70;;;8.30;99.90;;;;;;5051345;28;20475;-68
2022/11/17 03:32:04;;;;;;;4.87;4.27;;;8.30;99.90;;;;;;5053711;28;20459;-68
2022/11/17 03:34:35;;;;;;;11.90;4.57;;;8.30;99.90;;;;;;5054239;28;20976;-68
2022/11/17 03:37:05;;;;;;;5.43;4.50;;;8.30;99.90;;;;;;5039030;28;20867;-68
2022/11/17 03:39:34;;;;;;;8.13;4.73;;;8.30;99.90;;;;;;5033325;28;20454;-68
2022/11/17 03:42:05;;;;;;;8.50;5.00;;;8.30;99.90;;;;;;5033806;28;20461;-68
2022/11/17 03:44:36;;;;;;;5.37;4.40;;;8.30;99.90;;;;;;5033843;28;20851;-68
2022/11/17 03:47:07;;;;;;;5.97;5.17;;;8.30;99.90;;;;;;5042064;28;20495;-68
2022/11/17 03:49:39;;;;;;;10.23;5.33;;;8.20;99.90;;;;;;5033533;28;20454;-68
2022/11/17 03:52:06;;;;;;;12.90;5.33;;;8.30;99.90;;;;;;5031717;28;20449;-68
2022/11/17 03:54:34;;;;;;;11.93;5.40;;;8.20;99.90;;;;;;5031905;28;20568;-68
2022/11/17 03:57:05;;;;;;;10.40;4.90;;;8.30;99.90;;;;;;5040247;28;20456;-68
2022/11/17 03:59:41;;;;;;;7.20;5.30;;;8.30;99.90;;;;;;5052226;28;20449;-68
2022/11/17 04:02:09;;;;;;;12.97;5.47;;;8.30;99.90;;;;;;5050278;28;20482;-68
2022/11/17 04:07:16;;;;;;;12.87;5.40;;;8.30;99.90;;;;;;5042170;28;20606;-68
2022/11/17 04:09:42;;;;;;;18.90;6.90;;;8.30;99.90;;;;;;5032478;28;20453;-68
2022/11/17 04:17:44;;;;;;;9.10;6.40;;;8.30;99.90;;;;;;4994597;28;20602;-68
2022/11/17 04:20:11;;;;;;;16.90;6.30;;;8.30;99.90;;;;;;5033796;28;20453;-68
2022/11/17 04:22:37;;;;;;;9.23;7.10;;;8.30;99.90;;;;;;5033058;28;20446;-68
2022/11/17 04:25:05;;;;;;;12.20;7.17;;;8.30;99.90;;;;;;5033598;28;20561;-68
2022/11/17 04:30:17;;;;;;;14.50;6.70;;;8.30;99.90;;;;;;5031129;28;20473;-68
2022/11/17 04:32:44;;;;;;;12.73;7.20;;;8.40;99.90;;;;;;5052900;28;20477;-68
2022/11/17 04:35:10;;;;;;;8.10;6.50;;;8.40;99.90;;;;;;5053091;28;20453;-68
2022/11/17 04:37:37;;;;;;;22.93;7.87;;;8.40;99.90;;;;;;5034482;28;20454;-68
2022/11/17 04:40:05;;;;;;;17.60;7.50;;;8.40;99.90;;;;;;5032972;28;20450;-68
2022/11/17 04:42:30;;;;;;;13.53;8.40;;;8.40;99.90;;;;;;5032512;28;20454;-68
2022/11/17 04:44:57;;;;;;;13.60;7.87;;;8.40;99.90;;;;;;5032906;28;20461;-68
2022/11/17 04:47:25;;;;;;;13.20;8.67;;;8.40;99.90;;;;;;5043532;28;20570;-68
2022/11/17 04:49:52;;;;;;;11.10;8.30;;;8.40;99.90;;;;;;5053173;28;20446;-68
2022/11/17 04:52:18;;;;;;;12.93;9.07;;;8.40;99.90;;;;;;5052634;28;20796;-68
2022/11/17 04:54:45;;;;;;;15.13;8.47;;;8.40;99.90;;;;;;5052421;28;20820;-68
2022/11/17 04:57:11;;;;;;;11.23;8.53;;;8.40;99.90;;;;;;5038523;28;20472;-68
2022/11/17 04:59:38;;;;;;;15.80;9.10;;;8.40;99.90;;;;;;5032755;28;21028;-68
2022/11/17 05:02:05;;;;;;;15.93;9.17;;;8.40;99.90;;;;;;5033158;28;20831;-68
2022/11/17 05:07:17;;;;;;;17.50;9.30;;;8.40;99.90;;;;;;5040165;28;20495;-68
2022/11/17 05:09:44;;;;;;;14.47;8.50;;;8.40;99.90;;;;;;5032412;28;20453;-67
2022/11/17 05:14:54;;;;;;;11.50;8.63;;;8.50;99.90;;;;;;5032560;28;20904;-68
2022/11/17 05:17:20;;;;;;;18.73;8.53;;;8.50;99.90;;;;;;5033444;28;20454;-67
2022/11/17 05:19:48;;;;;;;13.50;8.13;;;8.50;99.90;;;;;;5033829;28;20453;-68
2022/11/17 05:25:02;;;;;;;11.60;8.30;;;8.50;99.90;;;;;;5032342;28;20941;-67
2022/11/17 05:27:28;;;;;;;13.60;8.93;;;8.50;99.90;;;;;;5031877;28;20490;-67
2022/11/17 05:29:55;;;;;;;14.03;8.73;;;8.50;99.90;;;;;;5031947;28;20450;-67
2022/11/17 05:32:22;;;;;;;32.03;8.63;;;8.60;99.90;;;;;;5032395;28;20864;-68
2022/11/17 05:34:50;;;;;;;10.50;8.07;;;8.60;99.90;;;;;;5012362;28;20502;-68
2022/11/17 05:37:16;;;;;;;20.60;9.30;;;8.60;99.90;;;;;;5033272;28;20450;-68
2022/11/17 05:39:43;;;;;;;16.17;9.40;;;8.60;99.90;;;;;;5031674;28;20962;-67
2022/11/17 05:42:10;;;;;;;13.70;8.70;;;8.60;99.90;;;;;;5032090;28;20450;-67
2022/11/17 05:44:36;;;;;;;15.50;8.47;;;8.60;99.90;;;;;;5045034;28;21059;-67
2022/11/17 05:47:03;;;;;;;10.97;8.63;;;8.60;99.90;;;;;;5033823;28;20486;-67
2022/11/17 05:49:30;;;;;;;12.37;8.30;;;8.60;99.90;;;;;;5052016;28;20457;-67
2022/11/17 05:51:58;;;;;;;15.47;8.60;;;8.60;99.90;;;;;;5040851;28;20871;-67
2022/11/17 05:54:25;;;;;;;16.33;8.40;;;8.60;99.90;;;;;;5030286;28;20876;-68
2022/11/17 05:56:57;;;;;;;9.40;8.23;;;8.60;99.90;;;;;;5037153;28;20450;-68
2022/11/17 05:59:29;;;;;;;13.30;8.03;;;8.60;99.90;;;;;;5049089;28;20803;-68
2022/11/17 06:02:02;;;;;;;11.33;8.37;;;8.50;99.90;;;;;;5036402;28;20856;-68
2022/11/17 06:04:30;;;;;;;11.33;8.60;;;8.50;99.90;;;;;;5022257;28;20466;-68
2022/11/17 06:07:00;;;;;;;13.60;8.00;;;8.50;99.90;;;;;;5031215;28;20477;-68
2022/11/17 06:09:28;;;;;;;10.57;7.27;;;8.50;99.90;;;;;;5030710;28;20945;-68
2022/11/17 06:11:55;;;;;;;17.40;7.37;;;8.50;99.90;;;;;;5030577;28;20857;-68
2022/11/17 06:14:21;;;;;;;10.70;7.90;;;8.50;99.90;;;;;;5030568;28;21024;-67
2022/11/17 06:16:50;;;;;;;12.70;7.90;;;8.50;99.90;;;;;;5031027;28;21023;-68
2022/11/17 06:19:21;;;;;;;11.47;7.50;;;8.50;99.90;;;;;;5031211;28;20446;-68
2022/11/17 06:21:48;;;;;;;10.33;6.60;;;8.50;99.90;;;;;;5011117;28;20455;-68
2022/11/17 06:24:17;;;;;;;8.07;7.10;;;8.50;99.90;;;;;;5011359;28;20484;-68
2022/11/17 06:26:44;;;;;;;13.37;6.07;;;8.50;99.90;;;;;;5011915;28;20573;-68
2022/11/17 06:29:12;;;;;;;6.80;6.10;;;8.50;99.90;;;;;;5015445;28;20949;-68
2022/11/17 06:31:40;;;;;;;10.50;6.60;;;8.50;99.90;;;;;;5015531;28;20458;-67
2022/11/17 06:34:07;;;;;;;9.07;6.40;;;8.50;99.90;;;;;;5018342;28;20477;-68
2022/11/17 06:36:34;;;;;;;7.73;6.90;;;8.50;99.90;;;;;;5039935;28;20449;-68
2022/11/17 06:39:00;;;;;;;14.50;6.67;;;8.60;99.90;;;;;;5054377;28;20457;-68
2022/11/17 06:41:29;;;;;;;8.50;6.63;;;8.60;99.90;;;;;;5052993;28;20450;-68
2022/11/17 06:43:56;;;;;;;11.87;6.93;;;8.60;99.90;;;;;;5054930;28;20511;-68
2022/11/17 06:46:22;;;;;;;11.17;7.60;;;8.60;99.90;;;;;;5043419;28;20463;-68
2022/11/17 06:48:49;;;;;;;8.90;6.93;;;8.60;99.90;;;;;;5038437;28;20453;-68
2022/11/17 06:51:16;;;;;;;9.67;6.80;;;8.60;99.90;;;;;;5035053;28;20503;-68
2022/11/17 06:53:42;;;;;;;10.67;7.80;;;8.50;99.90;;;;;;5038776;28;20465;-68
2022/11/17 06:56:10;;;;;;;8.70;7.47;;;8.60;99.90;;;;;;5034743;28;20480;-68
2022/11/17 06:58:40;;;;;;;9.77;8.13;;;8.60;99.90;;;;;;5041444;28;20446;-68
2022/11/17 07:01:08;;;;;;;9.43;8.43;;;8.50;99.90;;;;;;5036167;28;20965;-68
2022/11/17 07:03:37;;;;;;;9.63;6.77;;;8.60;99.90;;;;;;5048818;28;20476;-68
2022/11/17 07:06:05;;;;;;;10.90;7.27;;;8.60;99.90;;;;;;5044800;28;20457;-68
2022/11/17 07:08:33;;;;;;;11.67;8.10;;;8.60;99.90;;;;;;5044194;28;20484;-68
2022/11/17 07:11:04;;;;;;;12.80;6.77;;;8.60;99.90;;;;;;5041943;28;20477;-68
2022/11/17 07:13:32;;;;;;;14.93;7.23;;;8.60;99.90;;;;;;5052834;28;20849;-67
2022/11/17 07:16:04;;;;;;;17.23;7.50;;;8.60;99.90;;;;;;5022373;28;20549;-68
2022/11/17 07:18:31;;;;;;;9.47;7.40;;;8.60;99.90;;;;;;5043488;28;20452;-68
2022/11/17 07:21:02;;;;;;;12.10;7.53;;;8.60;99.90;;;;;;5054294;28;20456;-68
2022/11/17 07:23:29;;;;;;;11.00;7.50;;;8.70;99.90;;;;;;5054624;28;20560;-68
2022/11/17 07:25:56;;;;;;;11.87;7.50;;;8.70;99.90;;;;;;5044875;28;20454;-68
2022/11/17 07:28:22;;;;;;;12.87;7.33;;;8.70;99.90;;;;;;5050213;28;20481;-68
2022/11/17 07:30:49;;;;;;;12.60;8.77;;;8.70;99.90;;;;;;5041523;28;20822;-68
2022/11/17 07:33:17;;;;;;;8.90;7.63;;;8.70;99.90;;;;;;5044962;28;20469;-68
2022/11/17 07:35:49;;;;;;;10.90;6.93;;;8.70;99.90;;;;;;5037133;28;20450;-68
2022/11/17 07:38:16;;;;;;;9.87;7.37;;;8.80;99.90;;;;;;5033381;28;20450;-67
2022/11/17 07:40:42;;;;;;;10.70;7.33;;;8.80;99.90;;;;;;5033237;28;20464;-68
2022/11/17 07:43:09;;;;;;;8.40;7.00;;;8.70;99.90;;;;;;5035270;28;20470;-68
2022/11/17 07:45:36;;;;;;;9.10;6.70;;;8.70;99.90;;;;;;5036534;28;20459;-68
2022/11/17 07:48:05;;;;;;;9.60;7.20;;;8.70;99.90;;;;;;5053109;28;20492;-68
2022/11/17 07:50:33;;;;;;;10.33;7.23;;;8.70;99.90;;;;;;5052824;28;20489;-67
2022/11/17 07:53:00;;;;;;;9.83;7.03;;;8.70;99.90;;;;;;5049441;28;20596;-67
2022/11/17 07:55:27;;;;;;;11.47;6.50;;;8.80;99.90;;;;;;5038146;28;20466;-67
2022/11/17 07:57:58;;;;;;;10.63;6.27;;;8.80;99.90;;;;;;5034253;28;20457;-67
2022/11/17 08:00:25;;;;;;;13.70;7.63;;;8.80;99.90;;;;;;5033108;28;20495;-69
2022/11/17 08:02:52;;;;;;;7.47;6.00;;;8.80;99.90;;;;;;5039812;28;20492;-69
2022/11/17 08:05:19;;;;;;;13.43;6.43;;;8.80;99.90;;;;;;5044121;28;20473;-68
2022/11/17 08:07:55;;;;;;;9.50;6.23;;;8.80;99.90;;;;;;5032934;28;20478;-68
2022/11/17 08:10:21;;;;;;;9.13;5.83;;;8.80;99.90;;;;;;5037695;28;20483;-68
2022/11/17 08:12:50;;;;;;;7.73;6.70;;;8.90;99.90;;;;;;5049386;28;20477;-69
2022/11/17 08:15:17;;;;;;;6.80;6.10;;;8.90;99.90;;;;;;5033526;28;20462;-69
2022/11/17 08:17:44;;;;;;;16.43;6.57;;;8.90;99.90;;;;;;5042934;28;20477;-68
2022/11/17 08:20:12;;;;;;;8.97;6.40;;;8.90;99.90;;;;;;5043719;28;20475;-69
2022/11/17 08:22:39;;;;;;;14.83;6.13;;;8.90;99.90;;;;;;5049462;28;20488;-69
2022/11/17 08:25:08;;;;;;;9.67;7.10;;;8.90;99.90;;;;;;5041365;28;20481;-68
2022/11/17 08:27:34;;;;;;;9.87;7.47;;;8.90;99.90;;;;;;5033011;28;20886;-68
2022/11/17 08:30:01;;;;;;;7.60;6.90;;;8.90;99.90;;;;;;5032895;28;20453;-69
2022/11/17 08:32:28;;;;;;;13.00;7.23;;;8.90;99.90;;;;;;5032800;28;20450;-68
2022/11/17 08:34:55;;;;;;;10.43;6.70;;;8.90;99.90;;;;;;5034489;28;20544;-69
2022/11/17 08:37:22;;;;;;;13.10;6.30;;;8.90;99.90;;;;;;5039375;28;20481;-69
2022/11/17 08:39:48;;;;;;;11.50;6.87;;;8.90;99.90;;;;;;5053075;28;20452;-68
2022/11/17 08:42:17;;;;;;;9.67;6.30;;;8.90;99.90;;;;;;5052350;28;20449;-69
2022/11/17 08:44:44;;;;;;;6.90;5.87;;;8.90;99.90;;;;;;5049096;28;20479;-68
2022/11/17 08:47:11;;;;;;;11.13;6.37;;;8.90;99.90;;;;;;5052161;28;20477;-66
2022/11/17 08:49:37;;;;;;;8.57;5.63;;;8.90;99.90;;;;;;5043279;28;20450;-67
2022/11/17 08:52:04;;;;;;;10.10;6.80;;;8.90;99.90;;;;;;5029836;28;20458;-67
2022/11/17 08:54:31;;;;;;;9.40;6.63;;;9.00;99.90;;;;;;5028522;28;20489;-67
2022/11/17 08:56:58;;;;;;;7.77;6.97;;;9.00;99.90;;;;;;5034686;28;20452;-67
2022/11/17 08:59:26;;;;;;;9.90;6.73;;;9.00;99.90;;;;;;5052646;28;20457;-75
2022/11/17 09:01:53;;;;;;;12.77;6.60;;;9.00;99.90;;;;;;5052370;28;20457;-77
2022/11/17 09:04:20;;;;;;;7.93;7.13;;;9.00;99.90;;;;;;5046907;28;20473;-76
2022/11/17 09:06:47;;;;;;;7.37;6.40;;;9.10;99.90;;;;;;5036798;28;20457;-76
2022/11/17 09:09:13;;;;;;;15.50;8.10;;;9.10;99.90;;;;;;5032029;28;20576;-77
2022/11/17 09:11:40;;;;;;;8.73;7.73;;;9.40;99.90;;;;;;5032084;28;20538;-77
2022/11/17 09:14:07;;;;;;;14.63;7.50;;;9.40;99.90;;;;;;5032296;28;21013;-77
2022/11/17 09:16:36;;;;;;;8.07;6.83;;;9.40;99.90;;;;;;5032136;28;20973;-78
2022/11/17 09:19:03;;;;;;;14.15;7.13;;;9.40;99.90;;;;;;5031631;28;20434;-67
2022/11/17 09:21:31;;;;;;;9.37;7.97;;;9.40;99.90;;;;;;5031854;28;20308;-67
2022/11/17 09:23:57;;;;;;;14.10;7.70;;;9.40;99.90;;;;;;5031977;28;20554;-67
2022/11/17 09:26:24;;;;;;;10.70;8.43;;;9.40;99.90;;;;;;5032391;28;20446;-67
2022/11/17 09:28:51;;;;;;;11.67;8.67;;;9.50;99.90;;;;;;5032013;28;20482;-67
2022/11/17 09:31:19;;;;;;;12.23;9.80;;;9.50;99.90;;;;;;5032142;28;20461;-67
2022/11/17 09:33:48;;;;;;;14.37;8.50;;;9.50;99.90;;;;;;5031869;28;20477;-67
2022/11/17 09:36:16;;;;;;;14.57;8.00;;;9.50;99.90;;;;;;5014569;28;20493;-67
2022/11/17 09:38:42;;;;;;;12.23;8.80;;;9.50;99.90;;;;;;5012259;28;20454;-67
2022/11/17 09:41:23;;;;;;;12.50;8.30;;;9.40;99.90;;;;;;5013363;28;20962;-67
2022/11/17 09:43:56;;;;;;;14.03;8.53;;;9.40;99.90;;;;;;5032106;28;20465;-65
2022/11/17 09:46:29;;;;;;;8.90;7.20;;;9.50;99.90;;;;;;5016450;28;20451;-66
2022/11/17 09:49:06;;;;;;;7.93;4.77;;;9.50;99.90;;;;;;5011920;28;20486;-66
2022/11/17 09:51:38;;;;;;;4.87;4.20;;;9.60;99.90;;;;;;5012311;28;20571;-66
2022/11/17 09:54:13;;;;;;;6.63;4.50;;;9.70;99.90;;;;;;5027837;28;20462;-66
2022/11/17 09:56:40;;;;;;;9.60;4.03;;;9.80;99.90;;;;;;5031571;28;20446;-65
2022/11/17 09:59:11;;;;;;;3.80;3.50;;;9.90;99.90;;;;;;5030791;28;20446;-65
2022/11/17 10:01:38;;;;;;;3.93;3.27;;;10.00;99.90;;;;;;5021227;28;20446;-66
2022/11/17 10:04:11;;;;;;;2.70;2.50;;;10.00;99.90;;;;;;5029119;28;20470;-66
2022/11/17 10:06:38;;;;;;;6.00;2.60;;;10.10;99.90;;;;;;5029251;28;20954;-66
2022/11/17 10:09:15;;;;;;;2.70;2.50;;;10.10;99.90;;;;;;5030820;28;20482;-66
2022/11/17 10:11:43;;;;;;;3.40;2.40;;;10.20;99.90;;;;;;5011697;28;20863;-65
2022/11/17 10:14:13;;;;;;;3.07;2.00;;;10.20;99.90;;;;;;5018854;28;20857;-66
2022/11/17 10:16:43;;;;;;;10.30;2.03;;;10.20;99.90;;;;;;5028913;28;21033;-66
2022/11/17 10:19:19;;;;;;;4.40;1.77;;;10.20;99.90;;;;;;5031191;28;20445;-66
2022/11/17 10:21:49;;;;;;;2.30;1.50;;;10.20;99.90;;;;;;5031173;28;20453;-66
2022/11/17 10:24:35;;;;;;;5.97;1.80;;;10.20;99.90;;;;;;5026307;28;20476;-66
2022/11/17 10:27:04;;;;;;;6.70;1.53;;;10.10;99.90;;;;;;5031490;28;20465;-66
2022/11/17 10:29:30;;;;;;;2.57;1.50;;;10.10;99.90;;;;;;5031332;28;20491;-66
2022/11/17 10:31:58;;;;;;;1.97;1.53;;;10.10;99.90;;;;;;5030657;28;20454;-66
2022/11/17 10:34:34;;;;;;;5.60;1.87;;;10.10;99.90;;;;;;5030473;28;20470;-66
2022/11/17 10:37:07;;;;;;;2.33;1.80;;;10.20;99.90;;;;;;5029952;28;20450;-66
2022/11/17 10:39:37;;;;;;;5.50;1.80;;;10.20;99.90;;;;;;5030192;28;20751;-66
2022/11/17 10:42:18;;;;;;;4.73;1.80;;;10.20;99.90;;;;;;5030589;28;20454;-66
2022/11/17 10:44:50;;;;;;;6.23;1.70;;;10.10;99.90;;;;;;5030686;28;21008;-66
2022/11/17 10:47:26;;;;;;;2.30;1.53;;;10.10;99.90;;;;;;5030293;28;20450;-66
2022/11/17 10:50:14;;;;;;;4.37;1.70;;;10.20;99.90;;;;;;5030400;28;20469;-66
2022/11/17 10:52:40;;;;;;;4.37;1.40;;;10.30;99.90;;;;;;5030304;28;20465;-66
2022/11/17 10:55:23;;;;;;;6.00;1.60;;;10.40;99.90;;;;;;5029914;28;20454;-66
2022/11/17 10:57:53;;;;;;;4.30;1.57;;;10.60;99.90;;;;;;5025787;28;20446;-66
2022/11/17 11:00:25;;;;;;;1.77;1.40;;;10.80;99.90;;;;;;5030346;28;20534;-66
2022/11/17 11:03:07;;;;;;;3.83;1.77;;;11.40;99.90;;;;;;5030703;28;20466;-66
2022/11/17 11:05:35;;;;;;;2.70;1.70;;;12.00;99.90;;;;;;5029119;28;20541;-66
2022/11/17 11:08:18;;;;;;;3.20;1.97;;;12.50;99.90;;;;;;5031053;28;20485;-66
2022/11/17 11:10:48;;;;;;;8.53;2.03;;;12.70;99.90;;;;;;5030844;28;20818;-66
2022/11/17 11:13:22;;;;;;;5.20;1.83;;;12.90;99.90;;;;;;5031376;28;20474;-66
2022/11/17 11:15:49;;;;;;;2.63;1.60;;;12.70;99.90;;;;;;5033290;28;20868;-65
2022/11/17 11:18:17;;;;;;;2.50;1.50;;;12.60;99.90;;;;;;5034431;28;20441;-65
2022/11/17 11:20:51;;;;;;;4.70;1.87;;;12.40;99.90;;;;;;5034430;28;20456;-66
2022/11/17 11:23:25;;;;;;;2.57;1.50;;;12.30;99.90;;;;;;5034619;28;20480;-66
2022/11/17 11:25:55;;;;;;;3.63;1.60;;;12.10;99.90;;;;;;5034575;28;20949;-66
2022/11/17 11:28:36;;;;;;;5.20;1.73;;;11.90;99.90;;;;;;5034109;28;20482;-66
2022/11/17 11:31:13;;;;;;;1.80;1.40;;;11.70;99.90;;;;;;5034233;28;20459;-66
2022/11/17 11:33:44;;;;;;;2.23;1.40;;;11.60;99.90;;;;;;5033932;28;20555;-66
2022/11/17 11:36:26;;;;;;;4.83;1.90;;;11.60;99.90;;;;;;5033657;28;20468;-66
2022/11/17 11:38:59;;;;;;;4.80;1.90;;;11.60;99.90;;;;;;5034128;28;20455;-66
2022/11/17 11:41:52;;;;;;;1.80;1.60;;;11.70;99.90;;;;;;5033798;28;20449;-65
2022/11/17 11:44:44;;;;;;;6.63;2.70;;;11.70;99.90;;;;;;5033880;28;20901;-65
2022/11/17 11:47:27;;;;;;;3.73;2.20;;;11.70;99.90;;;;;;5030454;28;20462;-66
2022/11/17 11:49:58;;;;;;;12.20;2.17;;;11.80;99.90;;;;;;5033872;28;20490;-66
2022/11/17 11:52:33;;;;;;;8.40;2.07;;;11.80;99.90;;;;;;5033809;28;20452;-65
2022/11/17 11:55:03;;;;;;;5.03;2.20;;;11.70;99.90;;;;;;5033872;28;20469;-65
2022/11/17 11:57:35;;;;;;;4.27;2.00;;;11.70;99.90;;;;;;5034150;28;20446;-65
2022/11/17 12:00:05;;;;;;;4.33;2.23;;;11.60;99.90;;;;;;5033214;28;20500;-66
2022/11/17 12:02:39;;;;;;;8.57;2.10;;;11.60;99.90;;;;;;5031909;28;20459;-65
2022/11/17 12:05:19;;;;;;;4.00;1.97;;;11.60;99.90;;;;;;5033409;28;20816;-65
2022/11/17 12:07:52;;;;;;;8.43;2.30;;;11.50;99.90;;;;;;5033550;28;20461;-66
2022/11/17 12:10:25;;;;;;;6.73;2.10;;;11.50;99.90;;;;;;5033420;28;20458;-66
2022/11/17 12:12:52;;;;;;;10.40;2.33;;;11.50;99.90;;;;;;5032887;28;20477;-65
2022/11/17 12:15:34;;;;;;;11.00;2.30;;;11.50;99.90;;;;;;5028900;28;20451;-65
2022/11/17 12:18:03;;;;;;;6.47;2.50;;;11.50;99.90;;;;;;5027954;28;20462;-65
2022/11/17 12:20:55;;;;;;;5.27;1.73;;;11.60;99.90;;;;;;5033236;28;20532;-66
2022/11/17 12:23:50;;;;;;;2.57;1.80;;;11.60;99.90;;;;;;5033544;28;20506;-65
2022/11/17 12:26:23;;;;;;;8.77;2.20;;;11.70;99.90;;;;;;5030307;28;20454;-65
2022/11/17 12:29:10;;;;;;;3.17;1.97;;;11.80;99.90;;;;;;5033742;28;20490;-65
2022/11/17 12:31:42;;;;;;;4.23;1.83;;;11.90;99.90;;;;;;5032463;28;20455;-65
2022/11/17 12:34:21;;;;;;;4.77;1.90;;;12.10;99.90;;;;;;5033057;28;20990;-65
2022/11/17 12:37:15;;;;;;;4.20;1.60;;;12.20;99.90;;;;;;5032948;28;20486;-66
2022/11/17 12:40:04;;;;;;;12.53;2.10;;;12.20;99.90;;;;;;5033229;28;20506;-65
2022/11/17 12:42:32;;;;;;;4.17;1.83;;;12.20;99.90;;;;;;5032753;28;20453;-65
2022/11/17 12:45:04;;;;;;;6.77;2.10;;;12.20;99.90;;;;;;5032640;28;20520;-65
2022/11/17 12:47:32;;;;;;;8.20;2.30;;;12.10;99.90;;;;;;5032139;28;20526;-65
2022/11/17 12:50:40;;;;;;;3.50;1.80;;;12.10;99.90;;;;;;5032952;28;20489;-65
2022/11/17 12:53:32;;;;;;;3.50;2.27;;;12.10;99.90;;;;;;5026747;28;20466;-65
2022/11/17 12:56:30;;;;;;;5.40;1.97;;;12.00;99.90;;;;;;5025907;28;20488;-65
2022/11/17 12:59:21;;;;;;;12.30;2.20;;;12.00;99.90;;;;;;5032564;28;20501;-65
2022/11/17 13:01:57;;;;;;;10.03;2.60;;;12.00;99.90;;;;;;5012802;28;20507;-65
2022/11/17 13:04:39;;;;;;;17.27;3.10;;;12.00;99.90;;;;;;5032984;28;20462;-65
2022/11/17 13:07:07;;;;;;;8.73;2.70;;;12.00;99.90;;;;;;5012838;28;20451;-65
2022/11/17 13:09:35;;;;;;;6.50;2.77;;;12.00;99.90;;;;;;5012328;28;20493;-66
2022/11/17 13:12:05;;;;;;;13.57;2.93;;;12.00;99.90;;;;;;5023909;28;20458;-66
2022/11/17 13:14:33;;;;;;;9.67;2.77;;;11.90;99.90;;;;;;5032806;28;20500;-65
2022/11/17 13:17:00;;;;;;;7.80;3.07;;;11.90;99.90;;;;;;5015869;28;20517;-66
2022/11/17 13:19:33;;;;;;;10.30;3.40;;;11.90;99.90;;;;;;5012732;28;20944;-65
2022/11/17 13:22:02;;;;;;;5.53;2.43;;;11.90;99.90;;;;;;5012177;28;20454;-65
2022/11/17 13:24:31;;;;;;;14.40;2.80;;;11.80;99.90;;;;;;5012829;28;20472;-66
2022/11/17 13:26:59;;;;;;;13.17;2.70;;;11.70;99.90;;;;;;5030750;28;20626;-65
2022/11/17 13:29:27;;;;;;;9.03;2.10;;;11.70;99.90;;;;;;5032309;28;20517;-65
2022/11/17 13:32:15;;;;;;;12.30;4.27;;;11.60;99.90;;;;;;5031954;28;20474;-65
2022/11/17 13:34:47;;;;;;;15.53;2.60;;;11.60;99.90;;;;;;5031737;28;21072;-65
2022/11/17 13:37:17;;;;;;;4.97;2.00;;;11.50;99.90;;;;;;5031131;28;21002;-65